sensor_id;sensor_type;location;lat;lon;timestamp;P1;durP1;ratioP1;P2;durP2;ratioP2
29026;SDS011;16120;48.608;9.092;2023-06-04T00:03:06;64.57;;;1.80;;
29026;SDS011;16120;48.608;9.092;2023-06-04T00:07:02;64.67;;;1.80;;
29026;SDS011;16120;48.608;9.092;2023-06-04T00:10:57;64.47;;;1.80;;
29026;SDS011;16120;48.608;9.092;2023-06-04T00:14:53;64.63;;;1.90;;
29026;SDS011;16120;48.608;9.092;2023-06-04T00:18:48;64.73;;;1.80;;
29026;SDS011;16120;48.608;9.092;2023-06-04T00:22:44;64.47;;;1.80;;
29026;SDS011;16120;48.608;9.092;2023-06-04T00:26:39;64.20;;;1.77;;
29026;SDS011;16120;48.608;9.092;2023-06-04T00:30:35;64.30;;;1.87;;
29026;SDS011;16120;48.608;9.092;2023-06-04T00:34:30;64.53;;;1.80;;
29026;SDS011;16120;48.608;9.092;2023-06-04T00:38:26;64.53;;;1.80;;
29026;SDS011;16120;48.608;9.092;2023-06-04T00:42:22;64.27;;;1.90;;
29026;SDS011;16120;48.608;9.092;2023-06-04T00:46:17;64.13;;;2.00;;
29026;SDS011;16120;48.608;9.092;2023-06-04T00:50:12;64.47;;;2.00;;
29026;SDS011;16120;48.608;9.092;2023-06-04T00:54:09;64.27;;;1.90;;
29026;SDS011;16120;48.608;9.092;2023-06-04T00:58:05;64.10;;;1.80;;
29026;SDS011;16120;48.608;9.092;2023-06-04T01:02:01;64.17;;;1.70;;
29026;SDS011;16120;48.608;9.092;2023-06-04T01:05:57;64.47;;;1.80;;
29026;SDS011;16120;48.608;9.092;2023-06-04T01:09:55;64.20;;;1.80;;
29026;SDS011;16120;48.608;9.092;2023-06-04T01:13:50;64.67;;;1.80;;
29026;SDS011;16120;48.608;9.092;2023-06-04T01:17:46;64.77;;;1.80;;
29026;SDS011;16120;48.608;9.092;2023-06-04T01:21:43;64.20;;;1.90;;
29026;SDS011;16120;48.608;9.092;2023-06-04T01:25:40;64.47;;;2.00;;
29026;SDS011;16120;48.608;9.092;2023-06-04T01:29:35;64.47;;;1.83;;
29026;SDS011;16120;48.608;9.092;2023-06-04T01:33:31;64.57;;;2.00;;
29026;SDS011;16120;48.608;9.092;2023-06-04T01:37:26;64.43;;;2.07;;
29026;SDS011;16120;48.608;9.092;2023-06-04T01:41:22;64.67;;;2.10;;
29026;SDS011;16120;48.608;9.092;2023-06-04T01:45:18;64.77;;;2.13;;
29026;SDS011;16120;48.608;9.092;2023-06-04T01:49:13;64.43;;;2.10;;
29026;SDS011;16120;48.608;9.092;2023-06-04T01:53:08;64.67;;;2.10;;
29026;SDS011;16120;48.608;9.092;2023-06-04T01:57:05;64.37;;;2.10;;
29026;SDS011;16120;48.608;9.092;2023-06-04T02:01:00;64.33;;;2.00;;
29026;SDS011;16120;48.608;9.092;2023-06-04T02:04:56;64.57;;;2.10;;
29026;SDS011;16120;48.608;9.092;2023-06-04T02:08:51;64.37;;;2.00;;
29026;SDS011;16120;48.608;9.092;2023-06-04T02:12:54;64.20;;;2.07;;
29026;SDS011;16120;48.608;9.092;2023-06-04T02:16:50;64.40;;;2.00;;
29026;SDS011;16120;48.608;9.092;2023-06-04T02:20:46;64.47;;;2.10;;
29026;SDS011;16120;48.608;9.092;2023-06-04T02:24:41;64.47;;;2.00;;
29026;SDS011;16120;48.608;9.092;2023-06-04T02:28:37;64.43;;;2.07;;
29026;SDS011;16120;48.608;9.092;2023-06-04T02:32:33;64.10;;;2.20;;
29026;SDS011;16120;48.608;9.092;2023-06-04T02:36:28;64.00;;;2.20;;
29026;SDS011;16120;48.608;9.092;2023-06-04T02:40:24;64.17;;;2.00;;
29026;SDS011;16120;48.608;9.092;2023-06-04T02:44:20;64.27;;;2.00;;
29026;SDS011;16120;48.608;9.092;2023-06-04T02:48:15;64.37;;;2.27;;
29026;SDS011;16120;48.608;9.092;2023-06-04T02:52:11;64.27;;;2.10;;
29026;SDS011;16120;48.608;9.092;2023-06-04T02:56:06;64.33;;;1.97;;
29026;SDS011;16120;48.608;9.092;2023-06-04T03:00:03;64.13;;;2.00;;
29026;SDS011;16120;48.608;9.092;2023-06-04T03:03:58;64.07;;;2.00;;
29026;SDS011;16120;48.608;9.092;2023-06-04T03:07:53;64.37;;;2.27;;
29026;SDS011;16120;48.608;9.092;2023-06-04T03:11:48;63.77;;;2.03;;
29026;SDS011;16120;48.608;9.092;2023-06-04T03:15:45;63.77;;;2.07;;
29026;SDS011;16120;48.608;9.092;2023-06-04T03:19:41;63.97;;;2.30;;
29026;SDS011;16120;48.608;9.092;2023-06-04T03:23:36;64.20;;;2.07;;
29026;SDS011;16120;48.608;9.092;2023-06-04T03:27:31;63.58;;;2.30;;
29026;SDS011;16120;48.608;9.092;2023-06-04T03:31:28;64.03;;;2.10;;
29026;SDS011;16120;48.608;9.092;2023-06-04T03:35:23;63.77;;;2.10;;
29026;SDS011;16120;48.608;9.092;2023-06-04T03:39:18;63.50;;;2.13;;
29026;SDS011;16120;48.608;9.092;2023-06-04T03:43:14;63.85;;;2.20;;
29026;SDS011;16120;48.608;9.092;2023-06-04T03:47:10;63.70;;;2.10;;
29026;SDS011;16120;48.608;9.092;2023-06-04T03:51:06;63.60;;;2.20;;
29026;SDS011;16120;48.608;9.092;2023-06-04T03:55:01;63.67;;;2.20;;
29026;SDS011;16120;48.608;9.092;2023-06-04T03:58:56;64.33;;;2.13;;
29026;SDS011;16120;48.608;9.092;2023-06-04T04:02:53;64.07;;;2.10;;
29026;SDS011;16120;48.608;9.092;2023-06-04T04:06:48;64.07;;;2.43;;
29026;SDS011;16120;48.608;9.092;2023-06-04T04:10:43;64.33;;;2.20;;
29026;SDS011;16120;48.608;9.092;2023-06-04T04:14:39;64.00;;;2.40;;
29026;SDS011;16120;48.608;9.092;2023-06-04T04:18:35;63.73;;;2.20;;
29026;SDS011;16120;48.608;9.092;2023-06-04T04:22:31;64.47;;;2.40;;
29026;SDS011;16120;48.608;9.092;2023-06-04T04:26:26;64.07;;;2.33;;
29026;SDS011;16120;48.608;9.092;2023-06-04T04:30:21;64.37;;;2.50;;
29026;SDS011;16120;48.608;9.092;2023-06-04T04:34:18;64.22;;;2.53;;
29026;SDS011;16120;48.608;9.092;2023-06-04T04:38:13;64.07;;;2.20;;
29026;SDS011;16120;48.608;9.092;2023-06-04T04:42:08;64.27;;;2.60;;
29026;SDS011;16120;48.608;9.092;2023-06-04T04:46:04;64.30;;;2.40;;
29026;SDS011;16120;48.608;9.092;2023-06-04T04:50:00;64.30;;;2.40;;
29026;SDS011;16120;48.608;9.092;2023-06-04T04:53:55;64.50;;;2.40;;
29026;SDS011;16120;48.608;9.092;2023-06-04T04:57:51;64.65;;;2.20;;
29026;SDS011;16120;48.608;9.092;2023-06-04T05:01:46;64.30;;;2.20;;
29026;SDS011;16120;48.608;9.092;2023-06-04T05:05:42;64.47;;;2.20;;
29026;SDS011;16120;48.608;9.092;2023-06-04T05:09:38;64.37;;;2.20;;
29026;SDS011;16120;48.608;9.092;2023-06-04T05:13:33;64.50;;;2.20;;
29026;SDS011;16120;48.608;9.092;2023-06-04T05:17:28;64.50;;;2.20;;
29026;SDS011;16120;48.608;9.092;2023-06-04T05:21:25;64.30;;;2.30;;
29026;SDS011;16120;48.608;9.092;2023-06-04T05:29:44;64.63;;;2.23;;
29026;SDS011;16120;48.608;9.092;2023-06-04T05:37:57;64.70;;;2.40;;
29026;SDS011;16120;48.608;9.092;2023-06-04T05:41:52;64.57;;;2.30;;
29026;SDS011;16120;48.608;9.092;2023-06-04T05:45:47;64.50;;;2.30;;
29026;SDS011;16120;48.608;9.092;2023-06-04T05:49:42;64.57;;;2.40;;
29026;SDS011;16120;48.608;9.092;2023-06-04T05:53:39;64.17;;;2.13;;
29026;SDS011;16120;48.608;9.092;2023-06-04T05:57:34;64.47;;;2.23;;
29026;SDS011;16120;48.608;9.092;2023-06-04T06:01:29;64.77;;;2.50;;
29026;SDS011;16120;48.608;9.092;2023-06-04T06:05:24;64.10;;;2.33;;
29026;SDS011;16120;48.608;9.092;2023-06-04T06:09:21;64.57;;;2.30;;
29026;SDS011;16120;48.608;9.092;2023-06-04T06:13:16;64.13;;;2.40;;
29026;SDS011;16120;48.608;9.092;2023-06-04T06:17:12;64.87;;;2.87;;
29026;SDS011;16120;48.608;9.092;2023-06-04T06:21:07;64.00;;;2.50;;
29026;SDS011;16120;48.608;9.092;2023-06-04T06:25:03;63.60;;;2.33;;
29026;SDS011;16120;48.608;9.092;2023-06-04T06:28:59;63.70;;;2.13;;
29026;SDS011;16120;48.608;9.092;2023-06-04T06:32:54;64.77;;;2.60;;
29026;SDS011;16120;48.608;9.092;2023-06-04T06:36:49;63.40;;;2.17;;
29026;SDS011;16120;48.608;9.092;2023-06-04T06:40:46;64.40;;;2.20;;
29026;SDS011;16120;48.608;9.092;2023-06-04T06:44:41;64.40;;;2.30;;
29026;SDS011;16120;48.608;9.092;2023-06-04T06:48:36;63.60;;;2.30;;
29026;SDS011;16120;48.608;9.092;2023-06-04T06:52:32;63.97;;;2.30;;
29026;SDS011;16120;48.608;9.092;2023-06-04T06:56:29;64.27;;;2.30;;
29026;SDS011;16120;48.608;9.092;2023-06-04T07:00:25;63.63;;;2.00;;
29026;SDS011;16120;48.608;9.092;2023-06-04T07:04:20;64.07;;;2.20;;
29026;SDS011;16120;48.608;9.092;2023-06-04T07:08:16;63.37;;;2.10;;
29026;SDS011;16120;48.608;9.092;2023-06-04T07:12:13;63.70;;;2.00;;
29026;SDS011;16120;48.608;9.092;2023-06-04T07:16:08;63.63;;;2.00;;
29026;SDS011;16120;48.608;9.092;2023-06-04T07:20:05;63.40;;;2.00;;
29026;SDS011;16120;48.608;9.092;2023-06-04T07:24:00;63.77;;;2.00;;
29026;SDS011;16120;48.608;9.092;2023-06-04T07:27:56;63.67;;;2.10;;
29026;SDS011;16120;48.608;9.092;2023-06-04T07:31:52;63.47;;;2.00;;
29026;SDS011;16120;48.608;9.092;2023-06-04T07:35:47;63.57;;;1.87;;
29026;SDS011;16120;48.608;9.092;2023-06-04T07:39:42;63.17;;;1.80;;
29026;SDS011;16120;48.608;9.092;2023-06-04T07:43:39;63.90;;;3.60;;
29026;SDS011;16120;48.608;9.092;2023-06-04T07:47:35;63.37;;;1.90;;
29026;SDS011;16120;48.608;9.092;2023-06-04T07:51:30;63.17;;;2.00;;
29026;SDS011;16120;48.608;9.092;2023-06-04T07:55:25;63.07;;;1.87;;
29026;SDS011;16120;48.608;9.092;2023-06-04T07:59:22;62.90;;;1.93;;
29026;SDS011;16120;48.608;9.092;2023-06-04T08:03:18;63.20;;;2.00;;
29026;SDS011;16120;48.608;9.092;2023-06-04T08:07:13;62.93;;;1.80;;
29026;SDS011;16120;48.608;9.092;2023-06-04T08:11:08;63.00;;;1.77;;
29026;SDS011;16120;48.608;9.092;2023-06-04T08:15:06;63.43;;;2.53;;
29026;SDS011;16120;48.608;9.092;2023-06-04T08:19:01;63.97;;;3.50;;
29026;SDS011;16120;48.608;9.092;2023-06-04T08:22:56;65.20;;;6.50;;
29026;SDS011;16120;48.608;9.092;2023-06-04T08:26:51;63.23;;;1.83;;
29026;SDS011;16120;48.608;9.092;2023-06-04T08:30:48;63.03;;;1.60;;
29026;SDS011;16120;48.608;9.092;2023-06-04T08:34:44;63.47;;;2.60;;
29026;SDS011;16120;48.608;9.092;2023-06-04T08:38:39;62.87;;;1.80;;
29026;SDS011;16120;48.608;9.092;2023-06-04T08:42:42;62.87;;;1.80;;
29026;SDS011;16120;48.608;9.092;2023-06-04T08:46:39;63.03;;;1.80;;
29026;SDS011;16120;48.608;9.092;2023-06-04T08:50:34;62.67;;;1.80;;
29026;SDS011;16120;48.608;9.092;2023-06-04T08:54:30;64.47;;;5.17;;
29026;SDS011;16120;48.608;9.092;2023-06-04T08:58:26;62.40;;;1.80;;
29026;SDS011;16120;48.608;9.092;2023-06-04T09:02:25;62.53;;;1.70;;
29026;SDS011;16120;48.608;9.092;2023-06-04T09:06:22;62.37;;;1.60;;
29026;SDS011;16120;48.608;9.092;2023-06-04T09:10:18;63.00;;;2.97;;
29026;SDS011;16120;48.608;9.092;2023-06-04T09:14:14;62.37;;;1.50;;
29026;SDS011;16120;48.608;9.092;2023-06-04T09:18:11;62.27;;;1.50;;
29026;SDS011;16120;48.608;9.092;2023-06-04T09:22:06;62.60;;;1.90;;
29026;SDS011;16120;48.608;9.092;2023-06-04T09:26:08;62.27;;;1.73;;
29026;SDS011;16120;48.608;9.092;2023-06-04T09:30:03;61.60;;;1.50;;
29026;SDS011;16120;48.608;9.092;2023-06-04T09:34:00;62.43;;;1.50;;
29026;SDS011;16120;48.608;9.092;2023-06-04T09:37:55;62.67;;;2.33;;
29026;SDS011;16120;48.608;9.092;2023-06-04T09:41:57;62.47;;;1.50;;
29026;SDS011;16120;48.608;9.092;2023-06-04T09:45:52;62.43;;;1.57;;
29026;SDS011;16120;48.608;9.092;2023-06-04T09:49:49;61.60;;;1.60;;
29026;SDS011;16120;48.608;9.092;2023-06-04T09:53:52;62.67;;;1.57;;
29026;SDS011;16120;48.608;9.092;2023-06-04T09:57:48;62.87;;;2.13;;
29026;SDS011;16120;48.608;9.092;2023-06-04T10:01:43;62.47;;;2.90;;
29026;SDS011;16120;48.608;9.092;2023-06-04T10:05:40;62.60;;;1.60;;
29026;SDS011;16120;48.608;9.092;2023-06-04T10:09:36;62.40;;;2.00;;
29026;SDS011;16120;48.608;9.092;2023-06-04T10:13:35;73.83;;;16.23;;
29026;SDS011;16120;48.608;9.092;2023-06-04T10:17:31;62.00;;;1.50;;
29026;SDS011;16120;48.608;9.092;2023-06-04T10:21:29;62.27;;;3.17;;
29026;SDS011;16120;48.608;9.092;2023-06-04T10:25:25;62.57;;;1.60;;
29026;SDS011;16120;48.608;9.092;2023-06-04T10:29:20;62.63;;;1.67;;
29026;SDS011;16120;48.608;9.092;2023-06-04T10:33:17;62.00;;;1.70;;
29026;SDS011;16120;48.608;9.092;2023-06-04T10:37:19;63.10;;;2.40;;
29026;SDS011;16120;48.608;9.092;2023-06-04T10:41:15;62.77;;;1.60;;
29026;SDS011;16120;48.608;9.092;2023-06-04T10:45:10;62.00;;;1.60;;
29026;SDS011;16120;48.608;9.092;2023-06-04T10:49:05;62.40;;;2.10;;
29026;SDS011;16120;48.608;9.092;2023-06-04T10:53:02;62.60;;;1.60;;
29026;SDS011;16120;48.608;9.092;2023-06-04T10:56:57;63.07;;;3.50;;
29026;SDS011;16120;48.608;9.092;2023-06-04T11:00:52;61.80;;;1.60;;
29026;SDS011;16120;48.608;9.092;2023-06-04T11:04:58;62.00;;;1.60;;
29026;SDS011;16120;48.608;9.092;2023-06-04T11:09:02;62.47;;;1.87;;
29026;SDS011;16120;48.608;9.092;2023-06-04T11:12:57;61.60;;;1.13;;
29026;SDS011;16120;48.608;9.092;2023-06-04T11:16:53;62.43;;;1.37;;
29026;SDS011;16120;48.608;9.092;2023-06-04T11:20:48;61.97;;;1.10;;
29026;SDS011;16120;48.608;9.092;2023-06-04T11:24:45;62.37;;;1.10;;
29026;SDS011;16120;48.608;9.092;2023-06-04T11:28:40;62.27;;;1.30;;
29026;SDS011;16120;48.608;9.092;2023-06-04T11:32:35;61.90;;;1.20;;
29026;SDS011;16120;48.608;9.092;2023-06-04T11:36:31;62.70;;;1.80;;
29026;SDS011;16120;48.608;9.092;2023-06-04T11:40:27;62.27;;;1.60;;
29026;SDS011;16120;48.608;9.092;2023-06-04T11:44:22;62.17;;;1.70;;
29026;SDS011;16120;48.608;9.092;2023-06-04T11:48:18;62.37;;;1.50;;
29026;SDS011;16120;48.608;9.092;2023-06-04T11:52:13;62.47;;;1.57;;
29026;SDS011;16120;48.608;9.092;2023-06-04T11:56:09;62.37;;;1.40;;
29026;SDS011;16120;48.608;9.092;2023-06-04T12:00:05;62.00;;;1.30;;
29026;SDS011;16120;48.608;9.092;2023-06-04T12:04:01;61.97;;;1.40;;
29026;SDS011;16120;48.608;9.092;2023-06-04T12:08:06;62.13;;;1.50;;
29026;SDS011;16120;48.608;9.092;2023-06-04T12:12:03;61.20;;;1.67;;
29026;SDS011;16120;48.608;9.092;2023-06-04T12:15:59;62.40;;;1.40;;
29026;SDS011;16120;48.608;9.092;2023-06-04T12:19:54;63.30;;;6.23;;
29026;SDS011;16120;48.608;9.092;2023-06-04T12:23:49;61.73;;;1.20;;
29026;SDS011;16120;48.608;9.092;2023-06-04T12:27:47;61.87;;;1.30;;
29026;SDS011;16120;48.608;9.092;2023-06-04T12:31:43;64.40;;;6.30;;
29026;SDS011;16120;48.608;9.092;2023-06-04T12:35:38;61.63;;;1.30;;
29026;SDS011;16120;48.608;9.092;2023-06-04T12:39:34;62.13;;;1.70;;
29026;SDS011;16120;48.608;9.092;2023-06-04T12:43:30;62.00;;;1.27;;
29026;SDS011;16120;48.608;9.092;2023-06-04T12:47:25;61.77;;;1.30;;
29026;SDS011;16120;48.608;9.092;2023-06-04T12:51:21;61.30;;;1.20;;
29026;SDS011;16120;48.608;9.092;2023-06-04T12:55:16;61.57;;;1.27;;
29026;SDS011;16120;48.608;9.092;2023-06-04T12:59:13;61.67;;;1.20;;
29026;SDS011;16120;48.608;9.092;2023-06-04T13:03:08;61.73;;;1.30;;
29026;SDS011;16120;48.608;9.092;2023-06-04T13:07:03;60.77;;;1.20;;
29026;SDS011;16120;48.608;9.092;2023-06-04T13:11:01;59.57;;;1.00;;
29026;SDS011;16120;48.608;9.092;2023-06-04T13:14:58;60.50;;;1.30;;
29026;SDS011;16120;48.608;9.092;2023-06-04T13:18:53;60.47;;;1.30;;
29026;SDS011;16120;48.608;9.092;2023-06-04T13:22:48;60.20;;;1.70;;
29026;SDS011;16120;48.608;9.092;2023-06-04T13:26:47;61.17;;;1.67;;
29026;SDS011;16120;48.608;9.092;2023-06-04T13:30:43;62.20;;;5.80;;
29026;SDS011;16120;48.608;9.092;2023-06-04T13:34:39;61.00;;;1.40;;
29026;SDS011;16120;48.608;9.092;2023-06-04T13:38:34;60.27;;;1.10;;
29026;SDS011;16120;48.608;9.092;2023-06-04T13:42:30;60.17;;;1.20;;
29026;SDS011;16120;48.608;9.092;2023-06-04T13:46:27;59.60;;;1.00;;
29026;SDS011;16120;48.608;9.092;2023-06-04T13:50:22;60.27;;;0.97;;
29026;SDS011;16120;48.608;9.092;2023-06-04T13:54:18;60.80;;;1.20;;
29026;SDS011;16120;48.608;9.092;2023-06-04T13:58:13;60.00;;;1.33;;
29026;SDS011;16120;48.608;9.092;2023-06-04T14:02:09;59.90;;;1.40;;
29026;SDS011;16120;48.608;9.092;2023-06-04T14:06:04;60.30;;;1.20;;
29026;SDS011;16120;48.608;9.092;2023-06-04T14:10:24;60.63;;;1.60;;
29026;SDS011;16120;48.608;9.092;2023-06-04T14:14:19;60.37;;;1.50;;
29026;SDS011;16120;48.608;9.092;2023-06-04T14:18:14;60.87;;;1.40;;
29026;SDS011;16120;48.608;9.092;2023-06-04T14:22:10;60.57;;;1.23;;
29026;SDS011;16120;48.608;9.092;2023-06-04T14:26:07;60.53;;;1.20;;
29026;SDS011;16120;48.608;9.092;2023-06-04T14:30:02;59.87;;;1.00;;
29026;SDS011;16120;48.608;9.092;2023-06-04T14:33:58;60.17;;;1.00;;
29026;SDS011;16120;48.608;9.092;2023-06-04T14:37:53;60.30;;;1.30;;
29026;SDS011;16120;48.608;9.092;2023-06-04T14:41:49;60.67;;;1.10;;
29026;SDS011;16120;48.608;9.092;2023-06-04T14:45:45;60.20;;;1.10;;
29026;SDS011;16120;48.608;9.092;2023-06-04T14:49:40;59.90;;;1.10;;
29026;SDS011;16120;48.608;9.092;2023-06-04T14:53:35;60.47;;;1.20;;
29026;SDS011;16120;48.608;9.092;2023-06-04T14:57:32;60.77;;;1.10;;
29026;SDS011;16120;48.608;9.092;2023-06-04T15:01:27;60.47;;;1.10;;
29026;SDS011;16120;48.608;9.092;2023-06-04T15:05:22;60.40;;;1.10;;
29026;SDS011;16120;48.608;9.092;2023-06-04T15:09:17;60.77;;;3.00;;
29026;SDS011;16120;48.608;9.092;2023-06-04T15:13:14;60.67;;;2.10;;
29026;SDS011;16120;48.608;9.092;2023-06-04T15:17:09;60.53;;;1.10;;
29026;SDS011;16120;48.608;9.092;2023-06-04T15:21:04;60.80;;;1.10;;
29026;SDS011;16120;48.608;9.092;2023-06-04T15:25:00;60.97;;;3.40;;
29026;SDS011;16120;48.608;9.092;2023-06-04T15:28:56;60.57;;;1.10;;
29026;SDS011;16120;48.608;9.092;2023-06-04T15:32:51;60.53;;;1.10;;
29026;SDS011;16120;48.608;9.092;2023-06-04T15:36:46;60.80;;;1.07;;
29026;SDS011;16120;48.608;9.092;2023-06-04T15:40:42;60.73;;;1.27;;
29026;SDS011;16120;48.608;9.092;2023-06-04T15:44:38;60.80;;;1.10;;
29026;SDS011;16120;48.608;9.092;2023-06-04T15:48:33;60.70;;;1.10;;
29026;SDS011;16120;48.608;9.092;2023-06-04T15:52:29;59.80;;;1.10;;
29026;SDS011;16120;48.608;9.092;2023-06-04T15:56:24;59.90;;;1.10;;
29026;SDS011;16120;48.608;9.092;2023-06-04T16:00:20;60.90;;;1.20;;
29026;SDS011;16120;48.608;9.092;2023-06-04T16:04:16;60.90;;;2.40;;
29026;SDS011;16120;48.608;9.092;2023-06-04T16:08:11;60.87;;;1.20;;
29026;SDS011;16120;48.608;9.092;2023-06-04T16:12:06;60.80;;;1.10;;
29026;SDS011;16120;48.608;9.092;2023-06-04T16:16:03;60.47;;;1.20;;
29026;SDS011;16120;48.608;9.092;2023-06-04T16:19:58;60.97;;;1.10;;
29026;SDS011;16120;48.608;9.092;2023-06-04T16:23:53;60.97;;;1.03;;
29026;SDS011;16120;48.608;9.092;2023-06-04T16:27:49;60.47;;;1.00;;
29026;SDS011;16120;48.608;9.092;2023-06-04T16:31:46;60.37;;;1.00;;
29026;SDS011;16120;48.608;9.092;2023-06-04T16:35:41;60.37;;;1.00;;
29026;SDS011;16120;48.608;9.092;2023-06-04T16:39:36;62.00;;;4.00;;
29026;SDS011;16120;48.608;9.092;2023-06-04T16:43:31;60.97;;;1.00;;
29026;SDS011;16120;48.608;9.092;2023-06-04T16:47:28;60.10;;;1.00;;
29026;SDS011;16120;48.608;9.092;2023-06-04T16:51:23;59.70;;;1.00;;
29026;SDS011;16120;48.608;9.092;2023-06-04T16:55:18;60.37;;;0.90;;
29026;SDS011;16120;48.608;9.092;2023-06-04T16:59:23;60.90;;;1.10;;
29026;SDS011;16120;48.608;9.092;2023-06-04T17:03:19;60.40;;;1.00;;
29026;SDS011;16120;48.608;9.092;2023-06-04T17:07:14;60.70;;;1.27;;
29026;SDS011;16120;48.608;9.092;2023-06-04T17:11:10;60.67;;;1.00;;
29026;SDS011;16120;48.608;9.092;2023-06-04T17:15:06;60.47;;;1.07;;
29026;SDS011;16120;48.608;9.092;2023-06-04T17:19:02;60.87;;;1.10;;
29026;SDS011;16120;48.608;9.092;2023-06-04T17:22:58;60.07;;;1.00;;
29026;SDS011;16120;48.608;9.092;2023-06-04T17:26:54;60.77;;;1.00;;
29026;SDS011;16120;48.608;9.092;2023-06-04T17:30:49;60.83;;;1.00;;
29026;SDS011;16120;48.608;9.092;2023-06-04T17:34:46;61.07;;;1.80;;
29026;SDS011;16120;48.608;9.092;2023-06-04T17:38:41;61.07;;;1.10;;
29026;SDS011;16120;48.608;9.092;2023-06-04T17:42:36;60.97;;;1.20;;
29026;SDS011;16120;48.608;9.092;2023-06-04T17:46:31;60.93;;;1.10;;
29026;SDS011;16120;48.608;9.092;2023-06-04T17:50:28;61.10;;;1.10;;
29026;SDS011;16120;48.608;9.092;2023-06-04T17:54:23;60.77;;;1.10;;
29026;SDS011;16120;48.608;9.092;2023-06-04T17:58:18;61.00;;;1.10;;
29026;SDS011;16120;48.608;9.092;2023-06-04T18:02:14;60.77;;;1.10;;
29026;SDS011;16120;48.608;9.092;2023-06-04T18:06:10;60.60;;;1.10;;
29026;SDS011;16120;48.608;9.092;2023-06-04T18:10:06;60.00;;;1.07;;
29026;SDS011;16120;48.608;9.092;2023-06-04T18:14:01;60.53;;;1.00;;
29026;SDS011;16120;48.608;9.092;2023-06-04T18:17:56;60.37;;;1.10;;
29026;SDS011;16120;48.608;9.092;2023-06-04T18:21:53;60.43;;;1.00;;
29026;SDS011;16120;48.608;9.092;2023-06-04T18:25:48;60.47;;;1.00;;
29026;SDS011;16120;48.608;9.092;2023-06-04T18:29:43;60.57;;;1.00;;
29026;SDS011;16120;48.608;9.092;2023-06-04T18:33:48;60.43;;;1.00;;
29026;SDS011;16120;48.608;9.092;2023-06-04T18:37:45;60.47;;;1.00;;
29026;SDS011;16120;48.608;9.092;2023-06-04T18:41:40;60.63;;;0.90;;
29026;SDS011;16120;48.608;9.092;2023-06-04T18:45:35;60.73;;;1.00;;
29026;SDS011;16120;48.608;9.092;2023-06-04T18:49:30;60.83;;;1.00;;
29026;SDS011;16120;48.608;9.092;2023-06-04T18:53:27;60.83;;;1.00;;
29026;SDS011;16120;48.608;9.092;2023-06-04T18:57:22;61.07;;;0.90;;
29026;SDS011;16120;48.608;9.092;2023-06-04T19:01:17;60.97;;;1.00;;
29026;SDS011;16120;48.608;9.092;2023-06-04T19:05:15;61.05;;;1.00;;
29026;SDS011;16120;48.608;9.092;2023-06-04T19:09:11;60.70;;;1.00;;
29026;SDS011;16120;48.608;9.092;2023-06-04T19:13:07;60.93;;;1.03;;
29026;SDS011;16120;48.608;9.092;2023-06-04T19:17:02;61.03;;;1.00;;
29026;SDS011;16120;48.608;9.092;2023-06-04T19:20:57;61.23;;;1.00;;
29026;SDS011;16120;48.608;9.092;2023-06-04T19:24:54;60.75;;;1.00;;
29026;SDS011;16120;48.608;9.092;2023-06-04T19:28:49;61.07;;;1.00;;
29026;SDS011;16120;48.608;9.092;2023-06-04T19:32:44;61.03;;;1.10;;
29026;SDS011;16120;48.608;9.092;2023-06-04T19:36:40;61.03;;;1.10;;
29026;SDS011;16120;48.608;9.092;2023-06-04T19:40:36;61.07;;;1.10;;
29026;SDS011;16120;48.608;9.092;2023-06-04T19:44:31;61.17;;;1.10;;
29026;SDS011;16120;48.608;9.092;2023-06-04T19:48:27;61.37;;;1.30;;
29026;SDS011;16120;48.608;9.092;2023-06-04T19:52:22;61.07;;;1.10;;
29026;SDS011;16120;48.608;9.092;2023-06-04T19:56:18;61.13;;;1.07;;
29026;SDS011;16120;48.608;9.092;2023-06-04T20:00:14;61.23;;;1.30;;
29026;SDS011;16120;48.608;9.092;2023-06-04T20:04:09;61.27;;;1.10;;
29026;SDS011;16120;48.608;9.092;2023-06-04T20:08:04;61.47;;;1.20;;
29026;SDS011;16120;48.608;9.092;2023-06-04T20:12:01;61.53;;;1.20;;
29026;SDS011;16120;48.608;9.092;2023-06-04T20:15:56;61.37;;;1.20;;
29026;SDS011;16120;48.608;9.092;2023-06-04T20:19:51;61.27;;;1.20;;
29026;SDS011;16120;48.608;9.092;2023-06-04T20:23:46;61.17;;;1.10;;
29026;SDS011;16120;48.608;9.092;2023-06-04T20:27:43;61.07;;;1.10;;
29026;SDS011;16120;48.608;9.092;2023-06-04T20:31:38;61.33;;;1.20;;
29026;SDS011;16120;48.608;9.092;2023-06-04T20:35:33;61.10;;;1.17;;
29026;SDS011;16120;48.608;9.092;2023-06-04T20:39:29;61.37;;;1.17;;
29026;SDS011;16120;48.608;9.092;2023-06-04T20:43:26;61.53;;;1.20;;
29026;SDS011;16120;48.608;9.092;2023-06-04T20:47:21;61.43;;;1.10;;
29026;SDS011;16120;48.608;9.092;2023-06-04T20:51:17;61.27;;;1.20;;
29026;SDS011;16120;48.608;9.092;2023-06-04T20:55:12;60.80;;;1.27;;
29026;SDS011;16120;48.608;9.092;2023-06-04T20:59:12;61.37;;;1.20;;
29026;SDS011;16120;48.608;9.092;2023-06-04T21:03:07;60.60;;;1.10;;
29026;SDS011;16120;48.608;9.092;2023-06-04T21:07:03;60.67;;;1.20;;
29026;SDS011;16120;48.608;9.092;2023-06-04T21:10:58;60.77;;;1.17;;
29026;SDS011;16120;48.608;9.092;2023-06-04T21:14:55;60.90;;;1.30;;
29026;SDS011;16120;48.608;9.092;2023-06-04T21:18:50;60.90;;;1.30;;
29026;SDS011;16120;48.608;9.092;2023-06-04T21:22:45;61.37;;;1.30;;
29026;SDS011;16120;48.608;9.092;2023-06-04T21:26:40;61.27;;;1.30;;
29026;SDS011;16120;48.608;9.092;2023-06-04T21:30:37;61.43;;;1.23;;
29026;SDS011;16120;48.608;9.092;2023-06-04T21:34:32;60.97;;;1.30;;
29026;SDS011;16120;48.608;9.092;2023-06-04T21:38:27;61.43;;;1.40;;
29026;SDS011;16120;48.608;9.092;2023-06-04T21:42:22;61.20;;;1.30;;
29026;SDS011;16120;48.608;9.092;2023-06-04T21:46:19;61.37;;;1.30;;
29026;SDS011;16120;48.608;9.092;2023-06-04T21:50:14;61.63;;;1.23;;
29026;SDS011;16120;48.608;9.092;2023-06-04T21:54:09;61.73;;;1.30;;
29026;SDS011;16120;48.608;9.092;2023-06-04T21:58:04;61.37;;;1.30;;
29026;SDS011;16120;48.608;9.092;2023-06-04T22:02:01;61.43;;;1.33;;
29026;SDS011;16120;48.608;9.092;2023-06-04T22:05:56;61.43;;;1.37;;
29026;SDS011;16120;48.608;9.092;2023-06-04T22:09:51;61.37;;;1.27;;
29026;SDS011;16120;48.608;9.092;2023-06-04T22:13:47;61.43;;;1.20;;
29026;SDS011;16120;48.608;9.092;2023-06-04T22:17:43;61.10;;;1.30;;
29026;SDS011;16120;48.608;9.092;2023-06-04T22:21:38;61.20;;;1.30;;
29026;SDS011;16120;48.608;9.092;2023-06-04T22:25:33;61.13;;;1.30;;
29026;SDS011;16120;48.608;9.092;2023-06-04T22:29:29;61.37;;;1.30;;
29026;SDS011;16120;48.608;9.092;2023-06-04T22:33:25;60.90;;;1.30;;
29026;SDS011;16120;48.608;9.092;2023-06-04T22:37:20;61.10;;;1.30;;
29026;SDS011;16120;48.608;9.092;2023-06-04T22:41:15;60.87;;;1.30;;
29026;SDS011;16120;48.608;9.092;2023-06-04T22:45:11;61.70;;;1.30;;
29026;SDS011;16120;48.608;9.092;2023-06-04T22:49:07;61.63;;;1.40;;
29026;SDS011;16120;48.608;9.092;2023-06-04T22:53:02;61.50;;;1.40;;
29026;SDS011;16120;48.608;9.092;2023-06-04T22:56:58;61.60;;;1.37;;
29026;SDS011;16120;48.608;9.092;2023-06-04T23:00:53;60.97;;;1.40;;
29026;SDS011;16120;48.608;9.092;2023-06-04T23:04:49;61.33;;;1.50;;
29026;SDS011;16120;48.608;9.092;2023-06-04T23:08:45;61.47;;;1.40;;
29026;SDS011;16120;48.608;9.092;2023-06-04T23:12:40;61.07;;;1.40;;
29026;SDS011;16120;48.608;9.092;2023-06-04T23:16:35;61.27;;;1.40;;
29026;SDS011;16120;48.608;9.092;2023-06-04T23:20:31;61.17;;;1.40;;
29026;SDS011;16120;48.608;9.092;2023-06-04T23:24:27;61.27;;;1.40;;
29026;SDS011;16120;48.608;9.092;2023-06-04T23:28:22;61.40;;;1.40;;